Weather at Bobs Harries Airport

Public forecast

Using degrees Celsius for public forecast. Weather courtesy of forecast.io.

Closest aviation weather report (METAR) to Bobs Harries Airport

Report is more than 6 hours old.

Closest report is Moi Air Base, 16.2 nm (30.0 km) SSW. Retrieved 2017/02/04 15:00 UTC (6 years ago):

HKRE 041500Z 03012KT 9999 FEW027 25/11 Q1019

Closest aviation forecast (TAF) to Bobs Harries Airport

Closest forecast is Jomo Kenyatta International Airport, 17.2 nm (31.8 km) SSW. Retrieved 2022/08/10 06:57 UTC (29 minutes ago):

TAF HKJK 100500Z 1006/1112 16010KT 9999 BKN024 BECMG 1018/1021 06005KT BECMG 1102/1105 22005KT BKN015 BECMG 1108/1111 16010KT BKN024